sensor_id;sensor_type;location;lat;lon;timestamp;temperature;humidity
4739;DHT22;2383;48.632;10.156;2023-02-13T00:03:28;3.30;98.20
4739;DHT22;2383;48.632;10.156;2023-02-13T00:07:30;3.40;98.20
4739;DHT22;2383;48.632;10.156;2023-02-13T00:11:32;3.40;98.20
4739;DHT22;2383;48.632;10.156;2023-02-13T00:15:34;3.30;98.30
4739;DHT22;2383;48.632;10.156;2023-02-13T00:19:36;3.30;98.40
4739;DHT22;2383;48.632;10.156;2023-02-13T00:23:39;3.30;98.50
4739;DHT22;2383;48.632;10.156;2023-02-13T00:27:41;3.30;98.70
4739;DHT22;2383;48.632;10.156;2023-02-13T00:31:43;3.20;98.70
4739;DHT22;2383;48.632;10.156;2023-02-13T00:35:45;3.20;99.00
4739;DHT22;2383;48.632;10.156;2023-02-13T00:39:47;3.30;98.90
4739;DHT22;2383;48.632;10.156;2023-02-13T00:43:51;3.20;98.80
4739;DHT22;2383;48.632;10.156;2023-02-13T00:47:53;3.30;98.90
4739;DHT22;2383;48.632;10.156;2023-02-13T00:51:56;2.90;99.40
4739;DHT22;2383;48.632;10.156;2023-02-13T00:55:58;2.70;99.60
4739;DHT22;2383;48.632;10.156;2023-02-13T01:00:00;3.00;99.60
4739;DHT22;2383;48.632;10.156;2023-02-13T01:04:02;2.90;99.50
4739;DHT22;2383;48.632;10.156;2023-02-13T01:08:04;3.00;99.50
4739;DHT22;2383;48.632;10.156;2023-02-13T01:12:07;3.30;99.30
4739;DHT22;2383;48.632;10.156;2023-02-13T01:16:09;3.40;99.00
4739;DHT22;2383;48.632;10.156;2023-02-13T01:20:12;3.50;98.80
4739;DHT22;2383;48.632;10.156;2023-02-13T01:24:14;3.50;98.70
4739;DHT22;2383;48.632;10.156;2023-02-13T01:28:16;3.50;98.50
4739;DHT22;2383;48.632;10.156;2023-02-13T01:32:19;3.50;98.50
4739;DHT22;2383;48.632;10.156;2023-02-13T01:36:21;3.40;98.40
4739;DHT22;2383;48.632;10.156;2023-02-13T01:40:22;3.40;98.30
4739;DHT22;2383;48.632;10.156;2023-02-13T01:48:48;3.10;98.60
4739;DHT22;2383;48.632;10.156;2023-02-13T01:53:10;3.10;98.70
4739;DHT22;2383;48.632;10.156;2023-02-13T01:57:17;3.10;98.60
4739;DHT22;2383;48.632;10.156;2023-02-13T02:01:21;3.10;98.80
4739;DHT22;2383;48.632;10.156;2023-02-13T02:05:26;3.20;98.70
4739;DHT22;2383;48.632;10.156;2023-02-13T02:09:37;3.30;98.60
4739;DHT22;2383;48.632;10.156;2023-02-13T02:13:41;3.40;98.50
4739;DHT22;2383;48.632;10.156;2023-02-13T02:17:44;3.10;98.30
4739;DHT22;2383;48.632;10.156;2023-02-13T02:36:25;2.50;99.20
4739;DHT22;2383;48.632;10.156;2023-02-13T02:40:13;2.20;99.70
4739;DHT22;2383;48.632;10.156;2023-02-13T02:44:31;2.70;99.40
4739;DHT22;2383;48.632;10.156;2023-02-13T02:49:11;2.70;99.00
4739;DHT22;2383;48.632;10.156;2023-02-13T02:57:44;2.00;99.40
4739;DHT22;2383;48.632;10.156;2023-02-13T03:02:07;1.80;99.90
4739;DHT22;2383;48.632;10.156;2023-02-13T03:06:55;1.90;99.80
4739;DHT22;2383;48.632;10.156;2023-02-13T03:10:58;1.90;99.70
4739;DHT22;2383;48.632;10.156;2023-02-13T03:15:19;1.90;99.50
4739;DHT22;2383;48.632;10.156;2023-02-13T03:28:57;1.20;99.90
4739;DHT22;2383;48.632;10.156;2023-02-13T03:37:28;1.20;99.90
4739;DHT22;2383;48.632;10.156;2023-02-13T03:42:03;1.30;99.90
4739;DHT22;2383;48.632;10.156;2023-02-13T03:46:07;1.00;99.60
4739;DHT22;2383;48.632;10.156;2023-02-13T03:50:12;0.70;99.80
4739;DHT22;2383;48.632;10.156;2023-02-13T03:54:25;0.90;99.90
4739;DHT22;2383;48.632;10.156;2023-02-13T03:58:53;1.30;99.90
4739;DHT22;2383;48.632;10.156;2023-02-13T04:03:23;1.30;99.60
4739;DHT22;2383;48.632;10.156;2023-02-13T04:07:27;1.20;99.20
4739;DHT22;2383;48.632;10.156;2023-02-13T04:11:38;0.80;99.70
4739;DHT22;2383;48.632;10.156;2023-02-13T04:15:49;0.90;99.80
4739;DHT22;2383;48.632;10.156;2023-02-13T04:19:52;1.20;99.40
4739;DHT22;2383;48.632;10.156;2023-02-13T04:23:54;1.00;98.70
4739;DHT22;2383;48.632;10.156;2023-02-13T04:27:56;0.60;99.10
4739;DHT22;2383;48.632;10.156;2023-02-13T04:31:57;1.00;99.20
4739;DHT22;2383;48.632;10.156;2023-02-13T04:36:00;1.10;98.80
4739;DHT22;2383;48.632;10.156;2023-02-13T04:40:02;0.70;98.90
4739;DHT22;2383;48.632;10.156;2023-02-13T04:44:04;0.80;99.40
4739;DHT22;2383;48.632;10.156;2023-02-13T04:48:06;1.00;99.10
4739;DHT22;2383;48.632;10.156;2023-02-13T04:52:08;1.40;98.80
4739;DHT22;2383;48.632;10.156;2023-02-13T04:56:10;1.20;98.60
4739;DHT22;2383;48.632;10.156;2023-02-13T05:00:12;1.00;98.70
4739;DHT22;2383;48.632;10.156;2023-02-13T05:04:14;1.00;99.00
4739;DHT22;2383;48.632;10.156;2023-02-13T05:08:18;1.20;98.70
4739;DHT22;2383;48.632;10.156;2023-02-13T05:12:20;1.10;98.80
4739;DHT22;2383;48.632;10.156;2023-02-13T05:16:22;1.50;98.80
4739;DHT22;2383;48.632;10.156;2023-02-13T05:20:24;1.60;98.40
4739;DHT22;2383;48.632;10.156;2023-02-13T05:24:26;1.70;98.20
4739;DHT22;2383;48.632;10.156;2023-02-13T05:28:28;1.70;98.00
4739;DHT22;2383;48.632;10.156;2023-02-13T05:32:48;1.70;98.00
4739;DHT22;2383;48.632;10.156;2023-02-13T05:36:52;1.90;97.70
4739;DHT22;2383;48.632;10.156;2023-02-13T05:40:58;1.80;97.50
4739;DHT22;2383;48.632;10.156;2023-02-13T05:45:00;1.60;97.60
4739;DHT22;2383;48.632;10.156;2023-02-13T05:49:03;1.80;97.40
4739;DHT22;2383;48.632;10.156;2023-02-13T05:53:05;1.80;97.20
4739;DHT22;2383;48.632;10.156;2023-02-13T05:57:07;1.70;97.20
4739;DHT22;2383;48.632;10.156;2023-02-13T06:01:09;1.70;97.10
4739;DHT22;2383;48.632;10.156;2023-02-13T06:05:11;1.30;97.20
4739;DHT22;2383;48.632;10.156;2023-02-13T06:09:14;0.90;97.90
4739;DHT22;2383;48.632;10.156;2023-02-13T06:13:17;0.60;98.20
4739;DHT22;2383;48.632;10.156;2023-02-13T06:17:19;0.50;98.60
4739;DHT22;2383;48.632;10.156;2023-02-13T06:21:21;1.00;98.70
4739;DHT22;2383;48.632;10.156;2023-02-13T06:25:23;1.20;98.00
4739;DHT22;2383;48.632;10.156;2023-02-13T06:29:25;1.40;97.80
4739;DHT22;2383;48.632;10.156;2023-02-13T06:33:27;1.30;97.50
4739;DHT22;2383;48.632;10.156;2023-02-13T06:37:29;0.80;97.60
4739;DHT22;2383;48.632;10.156;2023-02-13T06:41:31;0.10;98.70
4739;DHT22;2383;48.632;10.156;2023-02-13T06:45:34;0.00;99.10
4739;DHT22;2383;48.632;10.156;2023-02-13T06:49:35;0.30;99.40
4739;DHT22;2383;48.632;10.156;2023-02-13T06:53:37;0.50;99.00
4739;DHT22;2383;48.632;10.156;2023-02-13T06:57:41;0.70;98.90
4739;DHT22;2383;48.632;10.156;2023-02-13T07:01:43;1.10;98.40
4739;DHT22;2383;48.632;10.156;2023-02-13T07:05:45;1.50;97.80
4739;DHT22;2383;48.632;10.156;2023-02-13T07:09:47;1.60;97.50
4739;DHT22;2383;48.632;10.156;2023-02-13T07:13:50;1.60;97.40
4739;DHT22;2383;48.632;10.156;2023-02-13T07:17:58;1.70;97.20
4739;DHT22;2383;48.632;10.156;2023-02-13T07:22:00;1.70;97.00
4739;DHT22;2383;48.632;10.156;2023-02-13T07:26:03;1.70;97.10
4739;DHT22;2383;48.632;10.156;2023-02-13T07:30:06;1.80;96.90
4739;DHT22;2383;48.632;10.156;2023-02-13T07:34:08;1.70;96.90
4739;DHT22;2383;48.632;10.156;2023-02-13T07:38:10;1.00;97.30
4739;DHT22;2383;48.632;10.156;2023-02-13T07:42:12;0.80;97.90
4739;DHT22;2383;48.632;10.156;2023-02-13T07:46:14;1.20;98.00
4739;DHT22;2383;48.632;10.156;2023-02-13T07:50:16;1.10;97.90
4739;DHT22;2383;48.632;10.156;2023-02-13T07:54:18;1.20;97.60
4739;DHT22;2383;48.632;10.156;2023-02-13T07:58:20;1.20;97.40
4739;DHT22;2383;48.632;10.156;2023-02-13T08:02:22;1.20;97.80
4739;DHT22;2383;48.632;10.156;2023-02-13T08:06:24;0.80;98.20
4739;DHT22;2383;48.632;10.156;2023-02-13T08:10:27;1.20;98.00
4739;DHT22;2383;48.632;10.156;2023-02-13T08:14:47;1.10;98.10
4739;DHT22;2383;48.632;10.156;2023-02-13T08:18:49;1.10;98.10
4739;DHT22;2383;48.632;10.156;2023-02-13T08:22:51;1.50;97.90
4739;DHT22;2383;48.632;10.156;2023-02-13T08:26:55;1.40;97.70
4739;DHT22;2383;48.632;10.156;2023-02-13T08:30:57;1.40;97.80
4739;DHT22;2383;48.632;10.156;2023-02-13T08:34:59;1.20;98.00
4739;DHT22;2383;48.632;10.156;2023-02-13T08:39:01;1.10;98.20
4739;DHT22;2383;48.632;10.156;2023-02-13T08:43:04;0.80;98.40
4739;DHT22;2383;48.632;10.156;2023-02-13T08:47:07;0.70;98.60
4739;DHT22;2383;48.632;10.156;2023-02-13T08:51:11;0.90;98.90
4739;DHT22;2383;48.632;10.156;2023-02-13T08:55:13;1.00;98.90
4739;DHT22;2383;48.632;10.156;2023-02-13T08:59:15;1.10;98.70
4739;DHT22;2383;48.632;10.156;2023-02-13T09:03:17;1.20;98.50
4739;DHT22;2383;48.632;10.156;2023-02-13T09:07:19;0.80;98.60
4739;DHT22;2383;48.632;10.156;2023-02-13T09:11:21;0.70;99.40
4739;DHT22;2383;48.632;10.156;2023-02-13T09:15:24;1.20;98.90
4739;DHT22;2383;48.632;10.156;2023-02-13T09:19:26;1.20;98.40
4739;DHT22;2383;48.632;10.156;2023-02-13T09:23:33;1.40;98.40
4739;DHT22;2383;48.632;10.156;2023-02-13T09:27:35;0.90;98.80
4739;DHT22;2383;48.632;10.156;2023-02-13T09:31:39;0.70;99.20
4739;DHT22;2383;48.632;10.156;2023-02-13T09:35:42;1.10;98.90
4739;DHT22;2383;48.632;10.156;2023-02-13T09:39:44;1.00;98.80
4739;DHT22;2383;48.632;10.156;2023-02-13T09:44:01;1.20;98.70
4739;DHT22;2383;48.632;10.156;2023-02-13T09:48:08;1.10;99.00
4739;DHT22;2383;48.632;10.156;2023-02-13T09:52:11;1.20;99.10
4739;DHT22;2383;48.632;10.156;2023-02-13T09:56:16;0.90;99.40
4739;DHT22;2383;48.632;10.156;2023-02-13T10:00:31;1.10;99.10
4739;DHT22;2383;48.632;10.156;2023-02-13T10:04:59;1.30;99.00
4739;DHT22;2383;48.632;10.156;2023-02-13T10:14:01;1.20;99.30
4739;DHT22;2383;48.632;10.156;2023-02-13T10:18:14;0.70;99.50
4739;DHT22;2383;48.632;10.156;2023-02-13T10:22:37;0.90;99.50
4739;DHT22;2383;48.632;10.156;2023-02-13T10:26:42;1.30;99.30
4739;DHT22;2383;48.632;10.156;2023-02-13T10:30:55;1.70;98.30
4739;DHT22;2383;48.632;10.156;2023-02-13T10:35:01;1.50;98.90
4739;DHT22;2383;48.632;10.156;2023-02-13T10:43:13;1.70;98.40
4739;DHT22;2383;48.632;10.156;2023-02-13T10:56:23;1.50;98.90
4739;DHT22;2383;48.632;10.156;2023-02-13T11:04:53;1.90;98.80
4739;DHT22;2383;48.632;10.156;2023-02-13T11:09:01;1.30;99.20
4739;DHT22;2383;48.632;10.156;2023-02-13T11:13:15;0.60;99.90
4739;DHT22;2383;48.632;10.156;2023-02-13T11:17:18;0.70;99.90
4739;DHT22;2383;48.632;10.156;2023-02-13T11:21:21;1.40;99.90
4739;DHT22;2383;48.632;10.156;2023-02-13T11:25:26;1.50;99.40
4739;DHT22;2383;48.632;10.156;2023-02-13T11:29:33;1.70;99.20
4739;DHT22;2383;48.632;10.156;2023-02-13T11:33:35;0.90;99.60
4739;DHT22;2383;48.632;10.156;2023-02-13T11:37:37;0.70;99.90
4739;DHT22;2383;48.632;10.156;2023-02-13T11:41:42;0.60;99.90
4739;DHT22;2383;48.632;10.156;2023-02-13T11:45:44;1.10;99.90
4739;DHT22;2383;48.632;10.156;2023-02-13T11:49:46;1.10;99.90
4739;DHT22;2383;48.632;10.156;2023-02-13T11:53:48;1.10;99.90
4739;DHT22;2383;48.632;10.156;2023-02-13T12:02:21;0.80;99.90
4739;DHT22;2383;48.632;10.156;2023-02-13T12:06:23;1.40;99.90
4739;DHT22;2383;48.632;10.156;2023-02-13T12:10:27;1.40;99.90
4739;DHT22;2383;48.632;10.156;2023-02-13T12:14:36;1.00;99.90
4739;DHT22;2383;48.632;10.156;2023-02-13T12:18:47;0.50;99.90
4739;DHT22;2383;48.632;10.156;2023-02-13T12:31:42;1.30;99.90
4739;DHT22;2383;48.632;10.156;2023-02-13T12:48:48;1.20;99.90
4739;DHT22;2383;48.632;10.156;2023-02-13T12:57:19;1.10;99.90
4739;DHT22;2383;48.632;10.156;2023-02-13T13:06:16;1.20;99.90
4739;DHT22;2383;48.632;10.156;2023-02-13T13:15:41;1.00;99.90
4739;DHT22;2383;48.632;10.156;2023-02-13T13:28:14;1.40;99.90
4739;DHT22;2383;48.632;10.156;2023-02-13T13:32:19;0.90;99.90
4739;DHT22;2383;48.632;10.156;2023-02-13T13:36:49;1.40;99.90
4739;DHT22;2383;48.632;10.156;2023-02-13T13:45:17;2.10;99.90
4739;DHT22;2383;48.632;10.156;2023-02-13T13:58:00;2.20;99.20
4739;DHT22;2383;48.632;10.156;2023-02-13T14:10:58;2.60;98.70
4739;DHT22;2383;48.632;10.156;2023-02-13T14:15:00;2.20;99.00
4739;DHT22;2383;48.632;10.156;2023-02-13T14:19:03;2.50;98.80
4739;DHT22;2383;48.632;10.156;2023-02-13T14:27:21;1.60;99.90
4739;DHT22;2383;48.632;10.156;2023-02-13T14:31:42;2.20;99.70
4739;DHT22;2383;48.632;10.156;2023-02-13T14:36:20;2.20;99.50
4739;DHT22;2383;48.632;10.156;2023-02-13T14:40:48;1.30;99.90
4739;DHT22;2383;48.632;10.156;2023-02-13T14:44:54;1.30;99.90
4739;DHT22;2383;48.632;10.156;2023-02-13T14:49:06;1.60;99.90
4739;DHT22;2383;48.632;10.156;2023-02-13T14:57:29;1.90;99.90
4739;DHT22;2383;48.632;10.156;2023-02-13T15:01:47;2.40;99.50
4739;DHT22;2383;48.632;10.156;2023-02-13T15:05:56;2.00;99.70
4739;DHT22;2383;48.632;10.156;2023-02-13T15:14:35;2.20;99.30
4739;DHT22;2383;48.632;10.156;2023-02-13T15:22:45;0.90;99.90
4739;DHT22;2383;48.632;10.156;2023-02-13T15:27:02;1.20;99.90
4739;DHT22;2383;48.632;10.156;2023-02-13T15:31:16;1.40;99.90
4739;DHT22;2383;48.632;10.156;2023-02-13T15:35:26;2.00;99.90
4739;DHT22;2383;48.632;10.156;2023-02-13T15:39:30;2.20;99.70
4739;DHT22;2383;48.632;10.156;2023-02-13T15:43:36;2.20;99.50
4739;DHT22;2383;48.632;10.156;2023-02-13T15:47:39;1.90;99.70
4739;DHT22;2383;48.632;10.156;2023-02-13T15:51:44;2.00;99.60
4739;DHT22;2383;48.632;10.156;2023-02-13T15:56:03;1.40;99.90
4739;DHT22;2383;48.632;10.156;2023-02-13T16:00:06;1.80;99.90
4739;DHT22;2383;48.632;10.156;2023-02-13T16:04:15;1.80;99.80
4739;DHT22;2383;48.632;10.156;2023-02-13T16:08:28;1.80;99.80
4739;DHT22;2383;48.632;10.156;2023-02-13T16:12:31;1.80;99.90
4739;DHT22;2383;48.632;10.156;2023-02-13T16:20:52;2.10;99.30
4739;DHT22;2383;48.632;10.156;2023-02-13T16:25:02;1.40;99.90
4739;DHT22;2383;48.632;10.156;2023-02-13T16:29:08;1.20;99.90
4739;DHT22;2383;48.632;10.156;2023-02-13T16:37:32;1.20;99.90
4739;DHT22;2383;48.632;10.156;2023-02-13T16:41:34;1.20;99.90
4739;DHT22;2383;48.632;10.156;2023-02-13T16:45:37;1.40;99.90
4739;DHT22;2383;48.632;10.156;2023-02-13T16:49:39;1.40;99.90
4739;DHT22;2383;48.632;10.156;2023-02-13T16:53:41;1.50;99.90
4739;DHT22;2383;48.632;10.156;2023-02-13T16:57:43;2.00;99.90
4739;DHT22;2383;48.632;10.156;2023-02-13T17:01:45;1.50;99.90
4739;DHT22;2383;48.632;10.156;2023-02-13T17:05:48;0.90;99.90
4739;DHT22;2383;48.632;10.156;2023-02-13T17:09:55;1.10;99.90
4739;DHT22;2383;48.632;10.156;2023-02-13T17:13:57;0.90;99.90
4739;DHT22;2383;48.632;10.156;2023-02-13T17:17:59;1.40;99.90
4739;DHT22;2383;48.632;10.156;2023-02-13T17:22:02;1.70;99.80
4739;DHT22;2383;48.632;10.156;2023-02-13T17:26:04;1.70;99.70
4739;DHT22;2383;48.632;10.156;2023-02-13T17:30:06;1.80;99.50
4739;DHT22;2383;48.632;10.156;2023-02-13T17:34:10;1.70;99.60
4739;DHT22;2383;48.632;10.156;2023-02-13T17:38:12;1.70;99.50
4739;DHT22;2383;48.632;10.156;2023-02-13T17:42:17;1.80;99.50
4739;DHT22;2383;48.632;10.156;2023-02-13T17:46:19;1.80;99.30
4739;DHT22;2383;48.632;10.156;2023-02-13T17:50:22;1.80;99.30
4739;DHT22;2383;48.632;10.156;2023-02-13T17:54:24;1.80;99.40
4739;DHT22;2383;48.632;10.156;2023-02-13T17:58:27;2.00;99.20
4739;DHT22;2383;48.632;10.156;2023-02-13T18:02:29;2.10;99.00
4739;DHT22;2383;48.632;10.156;2023-02-13T18:06:32;1.80;99.40
4739;DHT22;2383;48.632;10.156;2023-02-13T18:10:36;1.30;99.80
4739;DHT22;2383;48.632;10.156;2023-02-13T18:14:38;1.30;99.90
4739;DHT22;2383;48.632;10.156;2023-02-13T18:18:40;1.60;99.90
4739;DHT22;2383;48.632;10.156;2023-02-13T18:22:42;1.60;99.90
4739;DHT22;2383;48.632;10.156;2023-02-13T18:26:44;1.40;99.90
4739;DHT22;2383;48.632;10.156;2023-02-13T18:30:46;0.90;99.90
4739;DHT22;2383;48.632;10.156;2023-02-13T18:34:48;1.20;99.90
4739;DHT22;2383;48.632;10.156;2023-02-13T18:38:51;1.70;99.90
4739;DHT22;2383;48.632;10.156;2023-02-13T18:42:53;1.80;99.90
4739;DHT22;2383;48.632;10.156;2023-02-13T18:46:55;2.10;99.60
4739;DHT22;2383;48.632;10.156;2023-02-13T18:51:00;2.10;99.30
4739;DHT22;2383;48.632;10.156;2023-02-13T18:55:03;2.20;99.30
4739;DHT22;2383;48.632;10.156;2023-02-13T18:59:07;1.40;99.90
4739;DHT22;2383;48.632;10.156;2023-02-13T19:03:09;1.10;99.90
4739;DHT22;2383;48.632;10.156;2023-02-13T19:07:11;1.40;99.90
4739;DHT22;2383;48.632;10.156;2023-02-13T19:11:17;1.60;99.90
4739;DHT22;2383;48.632;10.156;2023-02-13T19:15:19;2.00;99.80
4739;DHT22;2383;48.632;10.156;2023-02-13T19:19:21;1.50;99.80
4739;DHT22;2383;48.632;10.156;2023-02-13T19:23:23;1.20;99.90
4739;DHT22;2383;48.632;10.156;2023-02-13T19:27:25;1.70;99.80
4739;DHT22;2383;48.632;10.156;2023-02-13T19:31:29;1.80;99.50
4739;DHT22;2383;48.632;10.156;2023-02-13T19:35:31;1.80;99.50
4739;DHT22;2383;48.632;10.156;2023-02-13T19:39:33;1.60;99.90
4739;DHT22;2383;48.632;10.156;2023-02-13T19:43:35;1.80;99.80
4739;DHT22;2383;48.632;10.156;2023-02-13T19:47:38;2.10;99.80
4739;DHT22;2383;48.632;10.156;2023-02-13T19:51:40;2.00;99.70
4739;DHT22;2383;48.632;10.156;2023-02-13T19:55:43;1.70;99.70
4739;DHT22;2383;48.632;10.156;2023-02-13T19:59:45;1.80;99.60
4739;DHT22;2383;48.632;10.156;2023-02-13T20:03:47;1.70;99.50
4739;DHT22;2383;48.632;10.156;2023-02-13T20:07:49;1.90;99.40
4739;DHT22;2383;48.632;10.156;2023-02-13T20:11:51;1.70;99.30
4739;DHT22;2383;48.632;10.156;2023-02-13T20:15:53;1.80;99.50
4739;DHT22;2383;48.632;10.156;2023-02-13T20:19:56;2.10;99.30
4739;DHT22;2383;48.632;10.156;2023-02-13T20:23:58;1.80;99.00
4739;DHT22;2383;48.632;10.156;2023-02-13T20:28:00;1.70;99.20
4739;DHT22;2383;48.632;10.156;2023-02-13T20:32:02;1.40;99.80
4739;DHT22;2383;48.632;10.156;2023-02-13T20:36:13;1.60;99.50
4739;DHT22;2383;48.632;10.156;2023-02-13T20:40:15;1.60;99.50
4739;DHT22;2383;48.632;10.156;2023-02-13T20:44:17;1.50;99.30
4739;DHT22;2383;48.632;10.156;2023-02-13T20:48:21;1.50;99.60
4739;DHT22;2383;48.632;10.156;2023-02-13T20:52:23;1.70;99.30
4739;DHT22;2383;48.632;10.156;2023-02-13T20:56:26;1.80;99.00
4739;DHT22;2383;48.632;10.156;2023-02-13T21:00:29;1.60;99.20
4739;DHT22;2383;48.632;10.156;2023-02-13T21:04:31;0.90;99.80
4739;DHT22;2383;48.632;10.156;2023-02-13T21:08:34;1.20;99.90
4739;DHT22;2383;48.632;10.156;2023-02-13T21:12:36;1.20;99.80
4739;DHT22;2383;48.632;10.156;2023-02-13T21:16:39;1.10;99.90
4739;DHT22;2383;48.632;10.156;2023-02-13T21:20:42;1.40;99.70
4739;DHT22;2383;48.632;10.156;2023-02-13T21:24:44;1.40;99.60
4739;DHT22;2383;48.632;10.156;2023-02-13T21:28:47;1.50;99.40
4739;DHT22;2383;48.632;10.156;2023-02-13T21:32:49;1.70;99.00
4739;DHT22;2383;48.632;10.156;2023-02-13T21:36:51;1.70;98.90
4739;DHT22;2383;48.632;10.156;2023-02-13T21:41:01;1.00;99.50
4739;DHT22;2383;48.632;10.156;2023-02-13T21:45:03;1.00;99.90
4739;DHT22;2383;48.632;10.156;2023-02-13T21:49:06;1.10;99.80
4739;DHT22;2383;48.632;10.156;2023-02-13T21:53:08;1.30;99.60
4739;DHT22;2383;48.632;10.156;2023-02-13T21:57:10;1.20;99.70
4739;DHT22;2383;48.632;10.156;2023-02-13T22:05:25;0.70;99.90
4739;DHT22;2383;48.632;10.156;2023-02-13T22:09:27;0.70;99.90
4739;DHT22;2383;48.632;10.156;2023-02-13T22:13:30;0.50;99.90
4739;DHT22;2383;48.632;10.156;2023-02-13T22:17:33;-0.40;99.90
4739;DHT22;2383;48.632;10.156;2023-02-13T22:21:37;-0.20;99.90
4739;DHT22;2383;48.632;10.156;2023-02-13T22:25:39;0.70;99.90
4739;DHT22;2383;48.632;10.156;2023-02-13T22:29:41;1.00;99.90
4739;DHT22;2383;48.632;10.156;2023-02-13T22:33:43;1.10;99.90
4739;DHT22;2383;48.632;10.156;2023-02-13T22:37:50;1.00;99.90
4739;DHT22;2383;48.632;10.156;2023-02-13T22:41:54;1.20;99.90
4739;DHT22;2383;48.632;10.156;2023-02-13T22:46:04;1.00;99.90
4739;DHT22;2383;48.632;10.156;2023-02-13T22:50:07;1.60;99.80
4739;DHT22;2383;48.632;10.156;2023-02-13T22:54:09;1.60;99.40
4739;DHT22;2383;48.632;10.156;2023-02-13T22:58:11;1.80;99.20
4739;DHT22;2383;48.632;10.156;2023-02-13T23:02:13;1.70;98.90
4739;DHT22;2383;48.632;10.156;2023-02-13T23:06:16;1.40;99.20
4739;DHT22;2383;48.632;10.156;2023-02-13T23:10:18;1.60;99.30
4739;DHT22;2383;48.632;10.156;2023-02-13T23:14:23;1.70;99.20
4739;DHT22;2383;48.632;10.156;2023-02-13T23:18:26;1.80;99.10
4739;DHT22;2383;48.632;10.156;2023-02-13T23:22:27;1.60;98.90
4739;DHT22;2383;48.632;10.156;2023-02-13T23:26:29;1.50;99.20
4739;DHT22;2383;48.632;10.156;2023-02-13T23:30:31;1.60;99.20
4739;DHT22;2383;48.632;10.156;2023-02-13T23:34:34;1.80;98.90
4739;DHT22;2383;48.632;10.156;2023-02-13T23:38:37;1.90;98.70
4739;DHT22;2383;48.632;10.156;2023-02-13T23:42:39;1.90;98.50
4739;DHT22;2383;48.632;10.156;2023-02-13T23:46:41;1.50;98.40
4739;DHT22;2383;48.632;10.156;2023-02-13T23:50:43;1.40;99.10
4739;DHT22;2383;48.632;10.156;2023-02-13T23:54:45;1.70;99.20
4739;DHT22;2383;48.632;10.156;2023-02-13T23:58:47;1.60;98.70
